createdAt,value
2017-08-02T00:01:17.321Z,16.10
2017-08-02T00:03:44.946Z,16.30
2017-08-02T00:06:13.333Z,15.10
2017-08-02T00:08:40.936Z,15.50
2017-08-02T00:11:08.564Z,17.60
2017-08-02T00:13:36.153Z,17.80
2017-08-02T00:16:03.752Z,17.97
2017-08-02T00:18:31.380Z,20.00
2017-08-02T00:20:58.973Z,19.03
2017-08-02T00:23:26.568Z,19.60
2017-08-02T00:25:54.957Z,19.80
2017-08-02T00:28:22.556Z,18.63
2017-08-02T00:30:50.152Z,19.43
2017-08-02T00:33:17.774Z,17.50
2017-08-02T00:35:45.370Z,18.80
2017-08-02T00:38:12.966Z,18.70
2017-08-02T00:40:41.362Z,18.60
2017-08-02T00:43:08.958Z,21.07
2017-08-02T00:45:36.602Z,19.27
2017-08-02T00:48:04.230Z,19.97
2017-08-02T00:50:32.594Z,19.40
2017-08-02T00:53:00.198Z,21.00
2017-08-02T00:55:27.821Z,21.00
2017-08-02T00:57:55.429Z,19.50
2017-08-02T01:00:23.017Z,22.53
2017-08-02T01:02:50.653Z,21.50
2017-08-02T01:05:18.249Z,21.83
2017-08-02T01:07:45.841Z,22.00
2017-08-02T01:10:13.471Z,22.77
2017-08-02T01:12:41.065Z,21.30
2017-08-02T01:15:08.661Z,21.97
2017-08-02T01:17:36.297Z,22.90
2017-08-02T01:20:05.312Z,20.97
2017-08-02T01:22:32.917Z,23.20
2017-08-02T01:25:01.470Z,20.93
2017-08-02T01:27:29.066Z,21.90
2017-08-02T01:29:56.665Z,21.07
2017-08-02T01:32:24.291Z,23.93
2017-08-02T01:34:51.891Z,24.63
2017-08-02T01:37:19.504Z,23.60
2017-08-02T01:39:47.126Z,24.57
2017-08-02T01:42:15.485Z,23.53
2017-08-02T01:44:43.094Z,24.53
2017-08-02T01:47:10.730Z,23.60
2017-08-02T01:49:39.095Z,22.60
2017-08-02T01:52:06.697Z,22.77
2017-08-02T01:54:34.326Z,22.87
2017-08-02T01:57:02.706Z,24.37
2017-08-02T01:59:30.309Z,22.60
2017-08-02T02:01:57.972Z,23.50
2017-08-02T02:04:25.565Z,24.27
2017-08-02T02:06:53.165Z,23.37
2017-08-02T02:09:21.565Z,23.87
2017-08-02T02:11:49.171Z,23.33
2017-08-02T02:14:16.782Z,23.43
2017-08-02T02:16:45.176Z,22.70
2017-08-02T02:19:12.783Z,24.97
2017-08-02T02:21:40.378Z,24.37
2017-08-02T02:24:08.010Z,28.83
2017-08-02T02:26:35.605Z,25.97
2017-08-02T02:29:03.203Z,24.90
2017-08-02T02:31:30.834Z,27.37
2017-08-02T02:33:59.197Z,24.30
2017-08-02T02:36:26.802Z,27.10
2017-08-02T02:38:54.447Z,23.93
2017-08-02T02:41:22.813Z,23.50
2017-08-02T02:43:50.933Z,25.37
2017-08-02T02:46:18.539Z,28.17
2017-08-02T02:48:46.128Z,26.00
2017-08-02T02:51:14.560Z,25.83
2017-08-02T02:53:42.157Z,25.33
2017-08-02T02:56:09.742Z,25.50
2017-08-02T02:58:37.319Z,25.30
2017-08-02T03:01:04.913Z,23.00
2017-08-02T03:03:32.480Z,26.93
2017-08-02T03:06:00.073Z,23.00
2017-08-02T03:08:27.677Z,22.40
2017-08-02T03:10:55.274Z,26.10
2017-08-02T03:13:22.874Z,24.50
2017-08-02T03:15:51.316Z,26.20
2017-08-02T03:18:18.898Z,24.97
2017-08-02T03:20:46.479Z,24.90
2017-08-02T03:23:14.078Z,25.87
2017-08-02T03:25:41.663Z,27.40
2017-08-02T03:28:09.258Z,28.50
2017-08-02T03:30:36.869Z,26.67
2017-08-02T03:33:04.451Z,26.73
2017-08-02T03:35:32.029Z,25.30
2017-08-02T03:37:59.633Z,27.00
2017-08-02T03:40:27.198Z,28.00
2017-08-02T03:42:54.795Z,26.70
2017-08-02T03:45:22.393Z,27.30
2017-08-02T03:47:50.027Z,28.63
2017-08-02T03:50:17.604Z,25.67
2017-08-02T03:52:45.204Z,26.40
2017-08-02T03:55:12.774Z,25.83
2017-08-02T03:57:40.343Z,27.70
2017-08-02T04:00:07.955Z,26.20
2017-08-02T04:02:35.546Z,27.08
2017-08-02T04:05:03.893Z,30.37
2017-08-02T04:07:31.503Z,28.43
2017-08-02T04:09:59.068Z,27.40
2017-08-02T04:12:26.628Z,29.40
2017-08-02T04:14:54.253Z,28.03
2017-08-02T04:17:21.847Z,27.60
2017-08-02T04:19:49.411Z,28.47
2017-08-02T04:22:17.020Z,28.93
2017-08-02T04:24:44.595Z,29.50
2017-08-02T04:27:12.187Z,29.23
2017-08-02T04:29:40.558Z,29.90
2017-08-02T04:32:08.137Z,32.70
2017-08-02T04:34:35.714Z,30.30
2017-08-02T04:37:03.333Z,31.90
2017-08-02T04:39:30.923Z,32.03
2017-08-02T04:41:59.288Z,33.90
2017-08-02T04:44:26.935Z,34.80
2017-08-02T04:46:54.507Z,36.60
2017-08-02T04:49:22.105Z,38.23
2017-08-02T04:51:49.720Z,37.20
2017-08-02T04:54:17.299Z,38.50
2017-08-02T04:56:44.893Z,41.43
2017-08-02T04:59:12.511Z,39.60
2017-08-02T05:01:40.106Z,42.70
2017-08-02T05:04:08.451Z,41.60
2017-08-02T05:06:36.069Z,38.90
2017-08-02T05:09:03.663Z,40.57
2017-08-02T05:11:31.234Z,39.67
2017-08-02T05:13:58.836Z,38.53
2017-08-02T05:16:27.179Z,36.67
2017-08-02T05:18:54.768Z,37.37
2017-08-02T05:21:23.163Z,39.97
2017-08-02T05:23:50.747Z,37.77
2017-08-02T05:26:18.341Z,42.58
2017-08-02T05:28:45.951Z,31.90
2017-08-02T05:31:13.527Z,34.37
2017-08-02T05:33:41.115Z,35.23
2017-08-02T05:36:08.730Z,35.37
2017-08-02T05:38:37.079Z,36.27
2017-08-02T05:41:04.657Z,38.20
2017-08-02T05:43:32.271Z,40.17
2017-08-02T05:45:59.824Z,40.70
2017-08-02T05:48:27.409Z,44.00
2017-08-02T05:50:55.032Z,40.30
2017-08-02T05:53:23.372Z,42.10
2017-08-02T05:55:50.956Z,42.93
2017-08-02T05:58:18.563Z,41.93
2017-08-02T06:00:46.148Z,44.13
2017-08-02T06:03:13.718Z,39.87
2017-08-02T06:05:41.345Z,43.20
2017-08-02T06:08:08.937Z,43.37
2017-08-02T06:10:36.515Z,44.80
2017-08-02T06:13:04.129Z,43.27
2017-08-02T06:15:31.717Z,40.63
2017-08-02T06:17:59.319Z,44.03
2017-08-02T06:20:26.946Z,43.30
2017-08-02T06:22:54.545Z,44.10
2017-08-02T06:25:22.124Z,45.40
2017-08-02T06:27:50.486Z,44.93
2017-08-02T06:30:18.059Z,45.87
2017-08-02T06:32:45.653Z,43.53
2017-08-02T06:35:13.313Z,45.87
2017-08-02T06:37:40.920Z,45.17
2017-08-02T06:40:08.502Z,45.77
2017-08-02T06:42:36.106Z,48.00
2017-08-02T06:45:03.698Z,47.53
2017-08-02T06:47:31.265Z,48.50
2017-08-02T06:49:58.879Z,49.07
2017-08-02T06:52:27.224Z,47.60
2017-08-02T06:54:54.809Z,46.50
2017-08-02T06:57:23.201Z,45.80
2017-08-02T06:59:50.773Z,45.80
2017-08-02T07:02:18.363Z,46.17
2017-08-02T07:04:46.252Z,44.60
2017-08-02T07:07:13.827Z,45.10
2017-08-02T07:09:41.407Z,41.20
2017-08-02T07:12:09.793Z,41.17
2017-08-02T07:14:38.127Z,41.57
2017-08-02T07:17:05.690Z,38.03
2017-08-02T07:19:33.321Z,38.40
2017-08-02T07:22:00.904Z,35.87
2017-08-02T07:24:28.499Z,35.63
2017-08-02T07:26:56.123Z,36.63
2017-08-02T07:29:23.716Z,35.53
2017-08-02T07:31:51.383Z,32.03
2017-08-02T07:34:19.010Z,33.90
2017-08-02T07:36:46.604Z,35.00
2017-08-02T07:39:14.170Z,30.17
2017-08-02T07:41:41.766Z,29.30
2017-08-02T07:44:10.111Z,27.10
2017-08-02T07:46:37.673Z,27.27
2017-08-02T07:49:05.265Z,23.60
2017-08-02T07:51:32.835Z,23.50
2017-08-02T07:54:00.407Z,19.97
2017-08-02T07:56:28.000Z,18.90
2017-08-02T07:58:55.581Z,16.90
2017-08-02T08:01:23.207Z,16.37
2017-08-02T08:03:50.831Z,13.40
2017-08-02T08:06:19.178Z,13.80
2017-08-02T08:08:46.954Z,13.43
2017-08-02T08:11:14.573Z,12.40
2017-08-02T08:13:42.167Z,12.60
2017-08-02T08:16:13.034Z,11.93
2017-08-02T08:18:40.683Z,14.37
2017-08-02T08:21:08.333Z,14.50
2017-08-02T08:23:36.030Z,16.60
2017-08-02T08:26:03.644Z,17.97
2017-08-02T08:28:31.219Z,20.80
2017-08-02T08:30:58.787Z,24.30
2017-08-02T08:33:26.779Z,28.13
2017-08-02T08:35:54.356Z,33.63
2017-08-02T08:38:22.703Z,34.97
2017-08-02T08:40:50.311Z,35.10
2017-08-02T08:43:17.897Z,34.93
2017-08-02T08:45:45.476Z,40.00
2017-08-02T08:48:13.087Z,39.97
2017-08-02T08:50:40.667Z,38.07
2017-08-02T08:53:09.011Z,37.73
2017-08-02T08:55:36.611Z,30.83
2017-08-02T08:58:04.209Z,30.13
2017-08-02T09:00:31.809Z,29.83
2017-08-02T09:03:03.974Z,28.70
2017-08-02T09:05:32.929Z,27.03
2017-08-02T09:08:02.403Z,25.30
2017-08-02T09:10:49.063Z,26.67
2017-08-02T09:13:18.192Z,23.97
2017-08-02T09:15:45.968Z,23.50
2017-08-02T09:18:14.372Z,22.47
2017-08-02T09:20:41.940Z,23.20
2017-08-02T09:23:09.526Z,19.33
2017-08-02T09:25:38.652Z,18.90
2017-08-02T09:28:06.255Z,17.53
2017-08-02T09:30:33.850Z,16.27
2017-08-02T09:33:01.473Z,15.10
2017-08-02T09:35:29.809Z,13.70
2017-08-02T09:37:57.405Z,13.20
2017-08-02T09:40:25.976Z,11.40
2017-08-02T09:42:53.567Z,11.90
2017-08-02T09:45:21.897Z,10.60
2017-08-02T09:47:49.493Z,11.23
2017-08-02T09:50:17.850Z,11.00
2017-08-02T09:52:45.431Z,11.57
2017-08-02T09:55:13.051Z,10.83
2017-08-02T09:57:41.475Z,11.10
2017-08-02T10:00:09.043Z,10.70
2017-08-02T10:02:37.420Z,10.23
2017-08-02T10:05:05.781Z,9.83
2017-08-02T10:07:33.359Z,9.57
2017-08-02T10:10:00.999Z,9.93
2017-08-02T10:12:28.575Z,8.77
2017-08-02T10:14:56.143Z,9.50
2017-08-02T10:17:23.769Z,8.60
2017-08-02T10:19:51.353Z,8.53
2017-08-02T10:22:18.965Z,7.97
2017-08-02T10:24:46.571Z,7.10
2017-08-02T10:27:14.128Z,6.30
2017-08-02T10:29:41.713Z,6.70
2017-08-02T10:32:09.319Z,6.47
2017-08-02T10:34:36.887Z,5.60
2017-08-02T10:37:04.476Z,5.27
2017-08-02T10:39:32.068Z,5.37
2017-08-02T10:41:59.653Z,4.43
2017-08-02T10:44:28.007Z,5.00
2017-08-02T10:46:55.623Z,5.00
2017-08-02T10:49:23.189Z,5.17
2017-08-02T10:51:50.779Z,5.60
2017-08-02T10:54:18.408Z,5.37
2017-08-02T10:56:45.996Z,4.97
2017-08-02T10:59:13.581Z,4.37
2017-08-02T11:01:41.169Z,4.37
2017-08-02T11:04:09.508Z,4.23
2017-08-02T11:06:37.131Z,3.97
2017-08-02T11:09:04.759Z,4.50
2017-08-02T11:11:32.331Z,5.23
2017-08-02T11:14:00.710Z,4.60
2017-08-02T11:16:28.336Z,3.97
2017-08-02T11:18:55.911Z,4.10
2017-08-02T11:21:23.551Z,3.97
2017-08-02T11:23:51.149Z,3.90
2017-08-02T11:26:18.712Z,3.67
2017-08-02T11:28:46.311Z,4.20
2017-08-02T11:31:14.101Z,6.23
2017-08-02T11:33:41.661Z,4.60
2017-08-02T11:36:09.249Z,4.53
2017-08-02T11:38:36.870Z,4.40
2017-08-02T11:41:04.447Z,5.87
2017-08-02T11:43:32.037Z,5.70
2017-08-02T11:45:59.657Z,4.60
2017-08-02T11:48:27.214Z,4.67
2017-08-02T11:50:54.786Z,3.80
2017-08-02T11:53:22.388Z,3.37
2017-08-02T11:55:49.969Z,3.93
2017-08-02T11:58:17.540Z,3.63
2017-08-02T12:00:45.917Z,3.77
2017-08-02T12:03:14.259Z,4.10
2017-08-02T12:05:41.817Z,4.00
2017-08-02T12:08:09.430Z,4.67
2017-08-02T12:10:37.781Z,4.43
2017-08-02T12:13:05.347Z,4.27
2017-08-02T12:15:32.970Z,4.80
2017-08-02T12:18:00.539Z,3.87
2017-08-02T12:20:28.095Z,4.20
2017-08-02T12:22:55.713Z,4.70
2017-08-02T12:25:23.313Z,5.00
2017-08-02T12:27:50.883Z,5.00
2017-08-02T12:30:18.487Z,5.87
2017-08-02T12:32:46.064Z,5.87
2017-08-02T12:35:14.477Z,3.87
2017-08-02T12:37:42.076Z,3.73
2017-08-02T12:40:09.672Z,5.10
2017-08-02T12:42:38.126Z,4.57
2017-08-02T12:45:05.743Z,4.53
2017-08-02T12:47:33.325Z,4.10
2017-08-02T12:50:00.913Z,3.70
2017-08-02T12:52:28.497Z,4.50
2017-08-02T12:54:56.071Z,4.17
2017-08-02T12:57:23.654Z,3.77
2017-08-02T12:59:51.279Z,4.43
2017-08-02T13:02:18.865Z,4.30
2017-08-02T13:04:47.219Z,4.03
2017-08-02T13:07:14.814Z,4.57
2017-08-02T13:09:43.167Z,4.83
2017-08-02T13:12:10.736Z,3.50
2017-08-02T13:14:38.326Z,3.90
2017-08-02T13:17:05.903Z,3.63
2017-08-02T13:19:33.464Z,4.43
2017-08-02T13:22:01.049Z,4.23
2017-08-02T13:24:28.671Z,3.23
2017-08-02T13:26:56.252Z,4.80
2017-08-02T13:29:23.872Z,3.90
2017-08-02T13:31:51.472Z,3.90
2017-08-02T13:34:19.061Z,4.20
2017-08-02T13:36:46.662Z,4.00
2017-08-02T13:39:14.272Z,4.40
2017-08-02T13:41:41.843Z,3.90
2017-08-02T13:44:09.489Z,3.97
2017-08-02T13:46:37.050Z,4.30
2017-08-02T13:49:04.610Z,4.67
2017-08-02T13:51:32.237Z,3.60
2017-08-02T13:53:59.793Z,4.47
2017-08-02T13:56:27.395Z,4.17
2017-08-02T13:58:54.988Z,3.87
2017-08-02T14:01:22.577Z,4.70
2017-08-02T14:03:50.141Z,3.53
2017-08-02T14:06:17.741Z,4.00
2017-08-02T14:08:45.323Z,5.03
2017-08-02T14:11:12.912Z,3.70
2017-08-02T14:13:40.515Z,4.47
2017-08-02T14:16:08.869Z,3.33
2017-08-02T14:18:36.444Z,3.60
2017-08-02T14:21:04.805Z,3.70
2017-08-02T14:23:32.390Z,3.23
2017-08-02T14:25:59.989Z,3.63
2017-08-02T14:28:27.576Z,2.77
2017-08-02T14:30:55.144Z,3.00
2017-08-02T14:33:22.729Z,3.07
2017-08-02T14:35:50.314Z,2.83
2017-08-02T14:38:18.666Z,3.20
2017-08-02T14:40:46.250Z,2.83
2017-08-02T14:43:14.627Z,4.60
2017-08-02T14:45:42.979Z,4.70
2017-08-02T14:48:10.559Z,2.97
2017-08-02T14:50:38.164Z,3.97
2017-08-02T14:53:05.747Z,3.47
2017-08-02T14:55:33.323Z,3.20
2017-08-02T14:58:00.942Z,3.50
2017-08-02T15:00:28.513Z,3.53
2017-08-02T15:02:56.082Z,3.53
2017-08-02T15:05:23.701Z,3.53
2017-08-02T15:07:51.254Z,3.63
2017-08-02T15:10:18.821Z,3.40
2017-08-02T15:12:46.442Z,3.40
2017-08-02T15:15:14.043Z,3.17
2017-08-02T15:17:41.612Z,4.17
2017-08-02T15:20:09.211Z,4.47
2017-08-02T15:22:36.784Z,4.10
2017-08-02T15:25:04.360Z,4.37
2017-08-02T15:27:31.973Z,4.30
2017-08-02T15:30:00.329Z,4.60
2017-08-02T15:32:27.912Z,4.70
2017-08-02T15:34:56.294Z,4.60
2017-08-02T15:37:24.625Z,5.10
2017-08-02T15:39:52.186Z,4.80
2017-08-02T15:42:19.785Z,4.10
2017-08-02T15:44:47.355Z,5.13
2017-08-02T15:47:14.941Z,4.30
2017-08-02T15:49:42.552Z,4.50
2017-08-02T15:52:10.133Z,4.73
2017-08-02T15:54:37.693Z,3.40
2017-08-02T15:57:05.305Z,3.80
2017-08-02T15:59:32.894Z,3.73
2017-08-02T16:02:00.471Z,4.07
2017-08-02T16:04:28.072Z,3.80
2017-08-02T16:06:56.430Z,4.10
2017-08-02T16:09:24.001Z,3.80
2017-08-02T16:11:52.357Z,3.80
2017-08-02T16:14:19.936Z,3.90
2017-08-02T16:16:48.270Z,3.67
2017-08-02T16:19:15.941Z,4.77
2017-08-02T16:21:43.867Z,4.13
2017-08-02T16:24:12.166Z,4.17
2017-08-02T16:26:39.817Z,4.20
2017-08-02T16:29:08.147Z,3.63
2017-08-02T16:31:36.205Z,3.50
2017-08-02T16:34:03.866Z,4.03
2017-08-02T16:36:31.447Z,4.20
2017-08-02T16:38:59.023Z,4.37
2017-08-02T16:41:26.639Z,4.00
2017-08-02T16:43:54.211Z,3.80
2017-08-02T16:46:21.783Z,3.80
2017-08-02T16:48:49.404Z,4.50
2017-08-02T16:51:16.994Z,4.00
2017-08-02T16:53:44.589Z,4.30
2017-08-02T16:56:12.209Z,4.10
2017-08-02T16:58:39.798Z,5.17
2017-08-02T17:01:07.367Z,5.23
2017-08-02T17:03:35.043Z,4.43
2017-08-02T17:06:02.631Z,5.03
2017-08-02T17:08:30.203Z,4.70
2017-08-02T17:10:57.807Z,4.97
2017-08-02T17:13:25.388Z,5.50
2017-08-02T17:15:52.977Z,5.67
2017-08-02T17:18:20.583Z,6.27
2017-08-02T17:20:48.145Z,5.70
2017-08-02T17:23:15.738Z,6.07
2017-08-02T17:25:43.366Z,6.90
2017-08-02T17:28:13.707Z,6.10
2017-08-02T17:30:41.288Z,5.93
2017-08-02T17:33:09.147Z,6.83
2017-08-02T17:35:37.027Z,5.50
2017-08-02T17:38:04.902Z,6.10
2017-08-02T17:40:33.319Z,6.03
2017-08-02T17:43:01.040Z,5.83
2017-08-02T17:45:28.710Z,5.70
2017-08-02T17:47:56.325Z,6.00
2017-08-02T17:50:24.682Z,5.60
2017-08-02T17:52:52.272Z,5.90
2017-08-02T17:55:19.880Z,6.27
2017-08-02T17:57:47.461Z,6.37
2017-08-02T18:00:15.103Z,5.43
2017-08-02T18:02:42.765Z,5.97
2017-08-02T18:05:10.390Z,6.43
2017-08-02T18:07:38.073Z,5.57
2017-08-02T18:10:05.732Z,6.00
2017-08-02T18:12:33.418Z,4.67
2017-08-02T18:15:01.093Z,6.27
2017-08-02T18:17:29.522Z,6.60
2017-08-02T18:19:57.853Z,6.50
2017-08-02T18:22:25.439Z,6.00
2017-08-02T18:24:53.058Z,7.00
2017-08-02T18:27:20.650Z,8.10
2017-08-02T18:29:48.225Z,6.70
2017-08-02T18:32:15.834Z,6.67
2017-08-02T18:34:43.411Z,6.60
2017-08-02T18:37:11.013Z,6.80
2017-08-02T18:39:38.609Z,7.70
2017-08-02T18:42:06.967Z,6.53
2017-08-02T18:44:34.528Z,6.70
2017-08-02T18:47:02.135Z,8.07
2017-08-02T18:49:29.728Z,8.37
2017-08-02T18:51:57.308Z,7.03
2017-08-02T18:54:24.916Z,7.30
2017-08-02T18:56:52.487Z,7.10
2017-08-02T18:59:20.083Z,7.07
2017-08-02T19:01:48.090Z,8.00
2017-08-02T19:04:16.435Z,7.40
2017-08-02T19:06:44.021Z,9.80
2017-08-02T19:09:11.613Z,10.33
2017-08-02T19:11:39.519Z,8.20
2017-08-02T19:14:07.109Z,7.60
2017-08-02T19:16:34.715Z,8.10
2017-08-02T19:19:02.318Z,7.40
2017-08-02T19:21:29.897Z,7.40
2017-08-02T19:23:57.500Z,7.80
2017-08-02T19:26:25.057Z,7.10
2017-08-02T19:28:52.655Z,8.37
2017-08-02T19:31:20.275Z,8.83
2017-08-02T19:33:48.638Z,8.27
2017-08-02T19:36:16.202Z,8.20
2017-08-02T19:38:44.579Z,8.80
2017-08-02T19:41:12.138Z,9.70
2017-08-02T19:43:39.714Z,9.70
2017-08-02T19:46:08.071Z,9.40
2017-08-02T19:48:35.673Z,9.30
2017-08-02T19:51:03.271Z,8.23
2017-08-02T19:53:30.878Z,8.30
2017-08-02T19:55:58.465Z,8.33
2017-08-02T19:58:26.064Z,8.87
2017-08-02T20:00:53.687Z,9.20
2017-08-02T20:03:21.257Z,9.10
2017-08-02T20:05:48.837Z,8.93
2017-08-02T20:08:16.569Z,9.10
2017-08-02T20:10:44.931Z,8.43
2017-08-02T20:13:12.496Z,9.20
2017-08-02T20:15:40.133Z,10.03
2017-08-02T20:18:07.755Z,8.67
2017-08-02T20:20:35.338Z,9.03
2017-08-02T20:23:02.947Z,10.00
2017-08-02T20:25:30.536Z,11.83
2017-08-02T20:27:58.119Z,10.67
2017-08-02T20:30:25.746Z,11.80
2017-08-02T20:32:53.362Z,12.27
2017-08-02T20:35:20.918Z,12.83
2017-08-02T20:37:48.546Z,12.30
2017-08-02T20:40:16.891Z,12.83
2017-08-02T20:42:44.445Z,12.60
2017-08-02T20:45:12.052Z,13.40
2017-08-02T20:47:40.470Z,14.43
2017-08-02T20:50:08.036Z,15.20
2017-08-02T20:52:35.654Z,13.87
2017-08-02T20:55:04.014Z,14.20
2017-08-02T20:57:31.612Z,14.17
2017-08-02T20:59:59.215Z,12.93
2017-08-02T21:02:26.775Z,11.97
2017-08-02T21:04:54.347Z,12.10
2017-08-02T21:07:21.980Z,14.05
2017-08-02T21:09:49.569Z,12.80
2017-08-02T21:12:17.147Z,13.40
2017-08-02T21:14:44.742Z,12.27
2017-08-02T21:17:12.315Z,12.13
2017-08-02T21:19:39.910Z,13.13
2017-08-02T21:22:07.529Z,10.50
2017-08-02T21:24:35.107Z,10.33
2017-08-02T21:27:02.688Z,10.20
2017-08-02T21:29:30.287Z,8.30
2017-08-02T21:31:57.859Z,7.17
2017-08-02T21:34:26.203Z,7.57
2017-08-02T21:36:53.803Z,9.10
2017-08-02T21:39:22.143Z,7.40
2017-08-02T21:41:49.712Z,6.80
2017-08-02T21:44:17.330Z,6.97
2017-08-02T21:46:44.904Z,6.23
2017-08-02T21:49:12.462Z,7.37
2017-08-02T21:51:40.065Z,7.60
2017-08-02T21:54:07.643Z,8.20
2017-08-02T21:56:35.234Z,8.00
2017-08-02T21:59:03.599Z,8.23
2017-08-02T22:01:33.745Z,8.93
2017-08-02T22:04:01.328Z,9.20
2017-08-02T22:06:28.920Z,10.30
2017-08-02T22:08:56.481Z,11.40
2017-08-02T22:11:24.054Z,12.90
2017-08-02T22:13:51.663Z,18.40
2017-08-02T22:16:19.263Z,20.57
2017-08-02T22:18:46.914Z,18.67
2017-08-02T22:21:14.501Z,18.50
2017-08-02T22:23:42.071Z,18.90
2017-08-02T22:26:09.665Z,18.50
2017-08-02T22:28:37.297Z,18.43
2017-08-02T22:31:04.875Z,15.47
2017-08-02T22:33:33.309Z,15.63
2017-08-02T22:36:00.929Z,16.30
2017-08-02T22:38:29.276Z,15.97
2017-08-02T22:40:56.866Z,16.30
2017-08-02T22:43:25.257Z,17.60
2017-08-02T22:45:53.603Z,16.00
2017-08-02T22:48:21.193Z,16.83
2017-08-02T22:50:48.801Z,15.90
2017-08-02T22:53:16.391Z,17.60
2017-08-02T22:55:44.100Z,17.23
2017-08-02T22:58:11.814Z,17.40
2017-08-02T23:00:39.482Z,18.17
2017-08-02T23:03:07.053Z,18.37
2017-08-02T23:05:34.669Z,19.40
2017-08-02T23:08:02.258Z,18.97
2017-08-02T23:10:29.817Z,17.47
2017-08-02T23:12:57.425Z,17.80
2017-08-02T23:15:25.780Z,17.97
2017-08-02T23:17:53.364Z,16.23
2017-08-02T23:20:21.755Z,19.37
2017-08-02T23:22:50.104Z,17.60
2017-08-02T23:25:17.691Z,18.50
2017-08-02T23:27:46.045Z,18.90
2017-08-02T23:30:13.637Z,19.17
2017-08-02T23:32:41.987Z,20.73
2017-08-02T23:35:09.596Z,19.60
2017-08-02T23:37:37.167Z,18.90
2017-08-02T23:40:04.757Z,21.17
2017-08-02T23:42:32.352Z,19.47
2017-08-02T23:44:59.924Z,19.63
2017-08-02T23:47:28.284Z,20.10
2017-08-02T23:49:55.906Z,21.57
2017-08-02T23:52:23.482Z,19.70
2017-08-02T23:54:51.055Z,20.27
2017-08-02T23:57:18.637Z,18.43
2017-08-02T23:59:46.230Z,19.23
